Flood From: 18-02-2018 10:00 Until: 19-02-2018 06:00 warning for: Flood Level: Yellow info button

Although rather usual in this region, locally or potentially dangerous phenomena are expected. (such as local winds, summer thunderstorms, rising streams or high waves) Be aware and pay attention to the latest weather updates, especially if you carry out activities exposed to weather or close to a stream or shoreline. 


Meteo18 Weather Cam more information Meteo18 Weather Cam


Thunder radar more information blitzortung!


Rain radar more information rain snow radar


Visit our other weather sites:

Template documentation
and downloads

And another site



Weather Underground History page Text

Daily Summary for January 6, 2017 Units:  Both    English   Metric
« Previous Day
Next Day »
Daily Weekly Monthly Yearly Custom
  High: Low: Average:
Temperature: TemperatureC °F /  -17.8 °C -4.6 °F /  -20.3 °C -2.2 °F /  -19 °C
Dew Point: DewpointC °F /  -17.8 °C -6.3 °F /  -21.3 °C -4.3 °F /  -20.2 °C
Humidity: Humidity % 63 % 86 %
Wind Speed: WindSpeedKMH mph /  0 km/h - 4 mph /  6.4 km/h
Wind Gust: WindSpeedGustKMH mph /  0 km/h - -
Wind:- - East
Pressure: PressurehPa in /  0 hPa 1036.1 in /  35082.3 hPa -
Precipitation: 0.0 in /  0 mm    
Historical Graphs
 
 
Tabular Data for January 6, 2017
Time Temperature Dew Point Pressure Wind Wind Speed Wind Gust Humidity Rainfall Rate (Hourly)
TemperatureC °F /  -17.8 °C DewpointC °F /  -17.8 °C PressurehPa in /  0 hPa Calm     Humidity % HourlyPrecipMM in /  0 mm
00:02 0.1 °F /  -17.7 °C -0.5 °F /  -18.1 °C 1036.5 in /  35095.9 hPa NE 6.4 mph /  10.3 km/h 11.3 mph /  18.2 km/h 96 % 0.0 in /  0 mm
00:07 0.1 °F /  -17.7 °C -0.5 °F /  -18.1 °C 1036.5 in /  35095.9 hPa NNW 1.6 mph /  2.6 km/h 11.3 mph /  18.2 km/h 96 % 0.0 in /  0 mm
00:12 -0.1 °F /  -17.8 °C -0.7 °F /  -18.2 °C 1036.5 in /  35095.9 hPa NNE 1.6 mph /  2.6 km/h 11.3 mph /  18.2 km/h 96 % 0.0 in /  0 mm
00:17 -0.1 °F /  -17.8 °C -0.7 °F /  -18.2 °C 1036.5 in /  35095.9 hPa NNE 1.6 mph /  2.6 km/h 8.0 mph /  12.9 km/h 96 % 0.0 in /  0 mm
00:22 0.0 °F /  -17.8 °C -0.6 °F /  -18.1 °C 1036.5 in /  35095.9 hPa North 1.6 mph /  2.6 km/h 11.3 mph /  18.2 km/h 96 % 0.0 in /  0 mm
00:32 -0.2 °F /  -17.9 °C -0.8 °F /  -18.2 °C 1036.5 in /  35095.9 hPa NE 1.6 mph /  2.6 km/h 11.3 mph /  18.2 km/h 96 % 0.0 in /  0 mm
00:42 -0.4 °F /  -18 °C -1.0 °F /  -18.3 °C 1036.5 in /  35095.9 hPa NNW 1.6 mph /  2.6 km/h 6.4 mph /  10.3 km/h 96 % 0.0 in /  0 mm
00:47 -0.4 °F /  -18 °C -1.0 °F /  -18.3 °C 1036.5 in /  35095.9 hPa NNE 8.0 mph /  12.9 km/h 8.0 mph /  12.9 km/h 96 % 0.0 in /  0 mm
00:52 -0.5 °F /  -18.1 °C -1.1 °F /  -18.4 °C 1036.5 in /  35095.9 hPa NNW 3.2 mph /  5.1 km/h 9.7 mph /  15.6 km/h 96 % 0.0 in /  0 mm
00:57 -0.6 °F /  -18.1 °C -1.2 °F /  -18.4 °C 1036.5 in /  35095.9 hPa North 3.2 mph /  5.1 km/h 9.7 mph /  15.6 km/h 96 % 0.0 in /  0 mm
01:02 -0.6 °F /  -18.1 °C -1.2 °F /  -18.4 °C 1036.5 in /  35095.9 hPa NE 4.8 mph /  7.7 km/h 9.7 mph /  15.6 km/h 96 % 0.0 in /  0 mm
01:07 -0.6 °F /  -18.1 °C -1.2 °F /  -18.4 °C 1036.5 in /  35095.9 hPa NNW 3.2 mph /  5.1 km/h 8.0 mph /  12.9 km/h 96 % 0.0 in /  0 mm
01:12 -0.7 °F /  -18.2 °C -1.3 °F /  -18.5 °C 1036.5 in /  35095.9 hPa NE 9.7 mph /  15.6 km/h 9.7 mph /  15.6 km/h 96 % 0.0 in /  0 mm
01:17 -0.7 °F /  -18.2 °C -1.3 °F /  -18.5 °C 1036.5 in /  35095.9 hPa NNE 3.2 mph /  5.1 km/h 11.3 mph /  18.2 km/h 96 % 0.0 in /  0 mm
01:22 -0.8 °F /  -18.2 °C -1.4 °F /  -18.6 °C 1036.5 in /  35095.9 hPa North 4.8 mph /  7.7 km/h 11.3 mph /  18.2 km/h 96 % 0.0 in /  0 mm
01:32 -0.9 °F /  -18.3 °C -1.5 °F /  -18.6 °C 1036.5 in /  35095.9 hPa NE 4.8 mph /  7.7 km/h 8.0 mph /  12.9 km/h 96 % 0.0 in /  0 mm
01:37 -0.9 °F /  -18.3 °C -1.5 °F /  -18.6 °C 1036.1 in /  35082.3 hPa NE 3.2 mph /  5.1 km/h 8.0 mph /  12.9 km/h 96 % 0.0 in /  0 mm
01:42 -1.1 °F /  -18.4 °C -1.8 °F /  -18.8 °C 1036.1 in /  35082.3 hPa Calm   8.0 mph /  12.9 km/h 95 % 0.0 in /  0 mm
01:52 -1.3 °F /  -18.5 °C -2.0 °F /  -18.9 °C 1036.1 in /  35082.3 hPa ENE 1.6 mph /  2.6 km/h 4.8 mph /  7.7 km/h 95 % 0.0 in /  0 mm
01:57 -1.4 °F /  -18.6 °C -2.1 °F /  -18.9 °C 1036.1 in /  35082.3 hPa ENE 1.6 mph /  2.6 km/h 4.8 mph /  7.7 km/h 95 % 0.0 in /  0 mm
02:02 -1.6 °F /  -18.7 °C -2.3 °F /  -19.1 °C 1036.1 in /  35082.3 hPa Calm   3.2 mph /  5.1 km/h 95 % 0.0 in /  0 mm
02:07 -1.8 °F /  -18.8 °C -2.5 °F /  -19.2 °C 1036.1 in /  35082.3 hPa Calm   3.2 mph /  5.1 km/h 95 % 0.0 in /  0 mm
02:12 -1.9 °F /  -18.8 °C -2.6 °F /  -19.2 °C 1036.1 in /  35082.3 hPa Calm   3.2 mph /  5.1 km/h 95 % 0.0 in /  0 mm
02:17 -2.1 °F /  -18.9 °C -2.7 °F /  -19.3 °C 1036.5 in /  35095.9 hPa Calm   1.6 mph /  2.6 km/h 96 % 0.0 in /  0 mm
02:22 -2.2 °F /  -19 °C -2.8 °F /  -19.3 °C 1036.5 in /  35095.9 hPa Calm   1.6 mph /  2.6 km/h 96 % 0.0 in /  0 mm
02:27 -2.2 °F /  -19 °C -2.8 °F /  -19.3 °C 1036.5 in /  35095.9 hPa Calm   1.6 mph /  2.6 km/h 96 % 0.0 in /  0 mm
02:32 -2.2 °F /  -19 °C -2.8 °F /  -19.3 °C 1036.5 in /  35095.9 hPa Calm   1.6 mph /  2.6 km/h 96 % 0.0 in /  0 mm
02:37 -2.1 °F /  -18.9 °C -2.7 °F /  -19.3 °C 1036.1 in /  35082.3 hPa NNE 1.6 mph /  2.6 km/h 3.2 mph /  5.1 km/h 96 % 0.0 in /  0 mm
02:42 -2.0 °F /  -18.9 °C -2.6 °F /  -19.2 °C 1036.5 in /  35095.9 hPa NNE 1.6 mph /  2.6 km/h 4.8 mph /  7.7 km/h 96 % 0.0 in /  0 mm
02:47 -2.0 °F /  -18.9 °C -2.6 °F /  -19.2 °C 1036.5 in /  35095.9 hPa NE 3.2 mph /  5.1 km/h 4.8 mph /  7.7 km/h 96 % 0.0 in /  0 mm
02:52 -2.0 °F /  -18.9 °C -2.6 °F /  -19.2 °C 1036.5 in /  35095.9 hPa ENE 1.6 mph /  2.6 km/h 4.8 mph /  7.7 km/h 96 % 0.0 in /  0 mm
02:57 -1.9 °F /  -18.8 °C -2.5 °F /  -19.2 °C 1036.5 in /  35095.9 hPa NNE 4.8 mph /  7.7 km/h 4.8 mph /  7.7 km/h 96 % 0.0 in /  0 mm
03:02 -1.9 °F /  -18.8 °C -2.5 °F /  -19.2 °C 1036.5 in /  35095.9 hPa NNE 4.8 mph /  7.7 km/h 6.4 mph /  10.3 km/h 96 % 0.0 in /  0 mm
03:07 -1.9 °F /  -18.8 °C -2.5 °F /  -19.2 °C 1036.5 in /  35095.9 hPa NE 1.6 mph /  2.6 km/h 8.0 mph /  12.9 km/h 96 % 0.0 in /  0 mm
03:12 -1.9 °F /  -18.8 °C -2.5 °F /  -19.2 °C 1036.8 in /  35106 hPa Calm   8.0 mph /  12.9 km/h 96 % 0.0 in /  0 mm
03:17 -2.1 °F /  -18.9 °C -2.8 °F /  -19.3 °C 1036.8 in /  35106 hPa NNE 1.6 mph /  2.6 km/h 8.0 mph /  12.9 km/h 95 % 0.0 in /  0 mm
03:22 -2.1 °F /  -18.9 °C -2.7 °F /  -19.3 °C 1036.8 in /  35106 hPa Calm   6.4 mph /  10.3 km/h 96 % 0.0 in /  0 mm
03:32 -2.3 °F /  -19.1 °C -3.0 °F /  -19.4 °C 1036.8 in /  35106 hPa Calm   3.2 mph /  5.1 km/h 95 % 0.0 in /  0 mm
03:37 -2.4 °F /  -19.1 °C -3.1 °F /  -19.5 °C 1036.8 in /  35106 hPa North 1.6 mph /  2.6 km/h 3.2 mph /  5.1 km/h 95 % 0.0 in /  0 mm
03:42 -2.4 °F /  -19.1 °C -3.0 °F /  -19.4 °C 1036.8 in /  35106 hPa NNE 3.2 mph /  5.1 km/h 4.8 mph /  7.7 km/h 96 % 0.0 in /  0 mm
03:52 -2.3 °F /  -19.1 °C -2.9 °F /  -19.4 °C 1036.5 in /  35095.9 hPa ENE 3.2 mph /  5.1 km/h 4.8 mph /  7.7 km/h 96 % 0.0 in /  0 mm
03:57 -2.3 °F /  -19.1 °C -2.9 °F /  -19.4 °C 1036.5 in /  35095.9 hPa Calm   4.8 mph /  7.7 km/h 96 % 0.0 in /  0 mm
04:02 -2.4 °F /  -19.1 °C -3.0 °F /  -19.4 °C 1036.5 in /  35095.9 hPa Calm   4.8 mph /  7.7 km/h 96 % 0.0 in /  0 mm
04:07 -2.6 °F /  -19.2 °C -3.1 °F /  -19.5 °C 1036.5 in /  35095.9 hPa NNE 1.6 mph /  2.6 km/h 4.8 mph /  7.7 km/h 96 % 0.0 in /  0 mm
04:12 -2.6 °F /  -19.2 °C -3.1 °F /  -19.5 °C 1036.5 in /  35095.9 hPa NNE 1.6 mph /  2.6 km/h 3.2 mph /  5.1 km/h 96 % 0.0 in /  0 mm
04:17 -2.6 °F /  -19.2 °C -3.1 °F /  -19.5 °C 1036.5 in /  35095.9 hPa Calm   4.8 mph /  7.7 km/h 96 % 0.0 in /  0 mm
04:22 -2.8 °F /  -19.3 °C -3.3 °F /  -19.6 °C 1036.8 in /  35106 hPa Calm   4.8 mph /  7.7 km/h 96 % 0.0 in /  0 mm
04:27 -2.8 °F /  -19.3 °C -3.3 °F /  -19.6 °C 1036.8 in /  35106 hPa NNW 1.6 mph /  2.6 km/h 3.2 mph /  5.1 km/h 96 % 0.0 in /  0 mm
04:37 -2.8 °F /  -19.3 °C -3.3 °F /  -19.6 °C 1036.8 in /  35106 hPa Calm   3.2 mph /  5.1 km/h 96 % 0.0 in /  0 mm
04:42 -2.9 °F /  -19.4 °C -3.4 °F /  -19.7 °C 1036.8 in /  35106 hPa NNE 1.6 mph /  2.6 km/h 3.2 mph /  5.1 km/h 96 % 0.0 in /  0 mm
04:47 -3.1 °F /  -19.5 °C -3.6 °F /  -19.8 °C 1036.8 in /  35106 hPa North 1.6 mph /  2.6 km/h 3.2 mph /  5.1 km/h 96 % 0.0 in /  0 mm
04:52 -3.2 °F /  -19.6 °C -3.7 °F /  -19.8 °C 1036.8 in /  35106 hPa NNE 1.6 mph /  2.6 km/h 1.6 mph /  2.6 km/h 96 % 0.0 in /  0 mm
04:57 -3.3 °F /  -19.6 °C -3.8 °F /  -19.9 °C 1036.8 in /  35106 hPa NNE 1.6 mph /  2.6 km/h 1.6 mph /  2.6 km/h 96 % 0.0 in /  0 mm
05:02 -3.2 °F /  -19.6 °C -3.7 °F /  -19.8 °C 1036.8 in /  35106 hPa Calm   3.2 mph /  5.1 km/h 96 % 0.0 in /  0 mm
05:12 -3.2 °F /  -19.6 °C -3.7 °F /  -19.8 °C 1036.8 in /  35106 hPa North 1.6 mph /  2.6 km/h 3.2 mph /  5.1 km/h 96 % 0.0 in /  0 mm
05:17 -3.1 °F /  -19.5 °C -3.6 °F /  -19.8 °C 1037.1 in /  35116.2 hPa North 3.2 mph /  5.1 km/h 3.2 mph /  5.1 km/h 96 % 0.0 in /  0 mm
05:22 -3.1 °F /  -19.5 °C -3.6 °F /  -19.8 °C 1037.1 in /  35116.2 hPa NNW 1.6 mph /  2.6 km/h 3.2 mph /  5.1 km/h 96 % 0.0 in /  0 mm
05:27 -3.1 °F /  -19.5 °C -3.6 °F /  -19.8 °C 1036.8 in /  35106 hPa NNW 1.6 mph /  2.6 km/h 4.8 mph /  7.7 km/h 96 % 0.0 in /  0 mm
05:32 -3.2 °F /  -19.6 °C -3.7 °F /  -19.8 °C 1037.1 in /  35116.2 hPa North 3.2 mph /  5.1 km/h 4.8 mph /  7.7 km/h 96 % 0.0 in /  0 mm
05:37 -3.3 °F /  -19.6 °C -4.0 °F /  -20 °C 1037.1 in /  35116.2 hPa NNE 3.2 mph /  5.1 km/h 4.8 mph /  7.7 km/h 95 % 0.0 in /  0 mm
05:42 -3.4 °F /  -19.7 °C -4.1 °F /  -20.1 °C 1037.1 in /  35116.2 hPa Calm   4.8 mph /  7.7 km/h 95 % 0.0 in /  0 mm
05:52 -3.4 °F /  -19.7 °C -4.1 °F /  -20.1 °C 1037.1 in /  35116.2 hPa Calm   4.8 mph /  7.7 km/h 95 % 0.0 in /  0 mm
05:57 -3.4 °F /  -19.7 °C -4.1 °F /  -20.1 °C 1037.1 in /  35116.2 hPa NNW 1.6 mph /  2.6 km/h 4.8 mph /  7.7 km/h 95 % 0.0 in /  0 mm
06:02 -3.4 °F /  -19.7 °C -4.1 °F /  -20.1 °C 1037.1 in /  35116.2 hPa NNE 1.6 mph /  2.6 km/h 4.8 mph /  7.7 km/h 95 % 0.0 in /  0 mm
06:07 -3.5 °F /  -19.7 °C -4.2 °F /  -20.1 °C 1037.1 in /  35116.2 hPa Calm   3.2 mph /  5.1 km/h 95 % 0.0 in /  0 mm
06:12 -3.6 °F /  -19.8 °C -4.3 °F /  -20.2 °C 1037.1 in /  35116.2 hPa North 1.6 mph /  2.6 km/h 3.2 mph /  5.1 km/h 95 % 0.0 in /  0 mm
06:17 -3.7 °F /  -19.8 °C -4.4 °F /  -20.2 °C 1037.1 in /  35116.2 hPa Calm   3.2 mph /  5.1 km/h 95 % 0.0 in /  0 mm
06:22 -3.7 °F /  -19.8 °C -4.4 °F /  -20.2 °C 1037.5 in /  35129.8 hPa NNW 1.6 mph /  2.6 km/h 3.2 mph /  5.1 km/h 95 % 0.0 in /  0 mm
06:27 -3.7 °F /  -19.8 °C -4.4 °F /  -20.2 °C 1037.5 in /  35129.8 hPa Calm   3.2 mph /  5.1 km/h 95 % 0.0 in /  0 mm
06:32 -3.7 °F /  -19.8 °C -4.4 °F /  -20.2 °C 1037.5 in /  35129.8 hPa Calm   3.2 mph /  5.1 km/h 95 % 0.0 in /  0 mm
06:42 -3.7 °F /  -19.8 °C -4.4 °F /  -20.2 °C 1037.1 in /  35116.2 hPa NNE 1.6 mph /  2.6 km/h 3.2 mph /  5.1 km/h 95 % 0.0 in /  0 mm
06:47 -3.7 °F /  -19.8 °C -4.4 °F /  -20.2 °C 1037.5 in /  35129.8 hPa North 1.6 mph /  2.6 km/h 3.2 mph /  5.1 km/h 95 % 0.0 in /  0 mm
06:57 -3.8 °F /  -19.9 °C -4.6 °F /  -20.3 °C 1037.5 in /  35129.8 hPa NNE 3.2 mph /  5.1 km/h 4.8 mph /  7.7 km/h 94 % 0.0 in /  0 mm
07:02 -3.9 °F /  -19.9 °C -4.7 °F /  -20.4 °C 1037.5 in /  35129.8 hPa Calm   4.8 mph /  7.7 km/h 94 % 0.0 in /  0 mm
07:12 -3.9 °F /  -19.9 °C -4.6 °F /  -20.3 °C 1037.5 in /  35129.8 hPa North 3.2 mph /  5.1 km/h 4.8 mph /  7.7 km/h 95 % 0.0 in /  0 mm
07:17 -3.9 °F /  -19.9 °C -4.7 °F /  -20.4 °C 1037.5 in /  35129.8 hPa NE 1.6 mph /  2.6 km/h 6.4 mph /  10.3 km/h 94 % 0.0 in /  0 mm
07:22 -4.0 °F /  -20 °C -4.8 °F /  -20.4 °C 1037.5 in /  35129.8 hPa North 1.6 mph /  2.6 km/h 6.4 mph /  10.3 km/h 94 % 0.0 in /  0 mm
07:32 -4.1 °F /  -20.1 °C -4.9 °F /  -20.5 °C 1037.5 in /  35129.8 hPa Calm   6.4 mph /  10.3 km/h 94 % 0.0 in /  0 mm
07:37 -4.2 °F /  -20.1 °C -5.0 °F /  -20.6 °C 1037.8 in /  35139.9 hPa North 1.6 mph /  2.6 km/h 6.4 mph /  10.3 km/h 94 % 0.0 in /  0 mm
07:42 -4.2 °F /  -20.1 °C -5.0 °F /  -20.6 °C 1037.8 in /  35139.9 hPa Calm   6.4 mph /  10.3 km/h 94 % 0.0 in /  0 mm
07:47 -4.2 °F /  -20.1 °C -5.0 °F /  -20.6 °C 1037.8 in /  35139.9 hPa North 1.6 mph /  2.6 km/h 3.2 mph /  5.1 km/h 94 % 0.0 in /  0 mm
07:52 -4.3 °F /  -20.2 °C -5.1 °F /  -20.6 °C 1037.8 in /  35139.9 hPa Calm   3.2 mph /  5.1 km/h 94 % 0.0 in /  0 mm
07:57 -4.3 °F /  -20.2 °C -5.1 °F /  -20.6 °C 1037.8 in /  35139.9 hPa Calm   3.2 mph /  5.1 km/h 94 % 0.0 in /  0 mm
08:02 -4.4 °F /  -20.2 °C -5.2 °F /  -20.7 °C 1037.8 in /  35139.9 hPa Calm   3.2 mph /  5.1 km/h 94 % 0.0 in /  0 mm
08:07 -4.4 °F /  -20.2 °C -5.2 °F /  -20.7 °C 1037.8 in /  35139.9 hPa Calm   1.6 mph /  2.6 km/h 94 % 0.0 in /  0 mm
08:12 -4.5 °F /  -20.3 °C -5.3 °F /  -20.7 °C 1037.8 in /  35139.9 hPa Calm   1.6 mph /  2.6 km/h 94 % 0.0 in /  0 mm
08:17 -4.5 °F /  -20.3 °C -5.3 °F /  -20.7 °C 1037.8 in /  35139.9 hPa Calm   1.6 mph /  2.6 km/h 94 % 0.0 in /  0 mm
08:22 -4.6 °F /  -20.3 °C -5.4 °F /  -20.8 °C 1037.8 in /  35139.9 hPa Calm   1.6 mph /  2.6 km/h 94 % 0.0 in /  0 mm
08:27 -4.5 °F /  -20.3 °C -5.3 °F /  -20.7 °C 1038.1 in /  35150.1 hPa Calm   3.2 mph /  5.1 km/h 94 % 0.0 in /  0 mm
08:32 -4.5 °F /  -20.3 °C -5.3 °F /  -20.7 °C 1038.1 in /  35150.1 hPa NE 1.6 mph /  2.6 km/h 3.2 mph /  5.1 km/h 94 % 0.0 in /  0 mm
08:37 -4.4 °F /  -20.2 °C -5.4 °F /  -20.8 °C 1038.1 in /  35150.1 hPa Calm   3.2 mph /  5.1 km/h 93 % 0.0 in /  0 mm
08:42 -4.5 °F /  -20.3 °C -5.5 °F /  -20.8 °C 1038.1 in /  35150.1 hPa Calm   4.8 mph /  7.7 km/h 93 % 0.0 in /  0 mm
08:47 -4.6 °F /  -20.3 °C -5.6 °F /  -20.9 °C 1038.1 in /  35150.1 hPa NNE 3.2 mph /  5.1 km/h 4.8 mph /  7.7 km/h 93 % 0.0 in /  0 mm
08:52 -4.4 °F /  -20.2 °C -5.4 °F /  -20.8 °C 1038.1 in /  35150.1 hPa Calm   4.8 mph /  7.7 km/h 93 % 0.0 in /  0 mm
08:57 -4.3 °F /  -20.2 °C -5.3 °F /  -20.7 °C 1038.5 in /  35163.6 hPa Calm   4.8 mph /  7.7 km/h 93 % 0.0 in /  0 mm
09:02 -4.3 °F /  -20.2 °C -5.4 °F /  -20.8 °C 1038.5 in /  35163.6 hPa NNW 1.6 mph /  2.6 km/h 4.8 mph /  7.7 km/h 92 % 0.0 in /  0 mm
09:12 -4.1 °F /  -20.1 °C -5.2 °F /  -20.7 °C 1038.5 in /  35163.6 hPa Calm   4.8 mph /  7.7 km/h 92 % 0.0 in /  0 mm
09:17 -3.9 °F /  -19.9 °C -5.0 °F /  -20.6 °C 1038.5 in /  35163.6 hPa North 3.2 mph /  5.1 km/h 4.8 mph /  7.7 km/h 92 % 0.0 in /  0 mm
09:22 -3.9 °F /  -19.9 °C -5.2 °F /  -20.7 °C 1038.5 in /  35163.6 hPa NNW 1.6 mph /  2.6 km/h 4.8 mph /  7.7 km/h 91 % 0.0 in /  0 mm
09:32 -3.7 °F /  -19.8 °C -5.0 °F /  -20.6 °C 1038.5 in /  35163.6 hPa Calm   4.8 mph /  7.7 km/h 91 % 0.0 in /  0 mm
09:37 -3.6 °F /  -19.8 °C -4.9 °F /  -20.5 °C 1038.5 in /  35163.6 hPa NNE 3.2 mph /  5.1 km/h 4.8 mph /  7.7 km/h 91 % 0.0 in /  0 mm
09:42 -3.6 °F /  -19.8 °C -4.9 °F /  -20.5 °C 1038.5 in /  35163.6 hPa North 3.2 mph /  5.1 km/h 4.8 mph /  7.7 km/h 91 % 0.0 in /  0 mm
09:47 -3.5 °F /  -19.7 °C -4.8 °F /  -20.4 °C 1038.5 in /  35163.6 hPa NNE 1.6 mph /  2.6 km/h 4.8 mph /  7.7 km/h 91 % 0.0 in /  0 mm
09:52 -3.4 °F /  -19.7 °C -4.8 °F /  -20.4 °C 1038.5 in /  35163.6 hPa NNE 1.6 mph /  2.6 km/h 8.0 mph /  12.9 km/h 90 % 0.0 in /  0 mm
09:57 -3.3 °F /  -19.6 °C -4.7 °F /  -20.4 °C 1038.5 in /  35163.6 hPa NE 3.2 mph /  5.1 km/h 8.0 mph /  12.9 km/h 90 % 0.0 in /  0 mm
10:02 -3.2 °F /  -19.6 °C -4.8 °F /  -20.4 °C 1038.5 in /  35163.6 hPa NE 3.2 mph /  5.1 km/h 8.0 mph /  12.9 km/h 89 % 0.0 in /  0 mm
10:07 -3.1 °F /  -19.5 °C -4.5 °F /  -20.3 °C 1038.5 in /  35163.6 hPa NE 1.6 mph /  2.6 km/h 8.0 mph /  12.9 km/h 90 % 0.0 in /  0 mm
10:12 -2.9 °F /  -19.4 °C -4.5 °F /  -20.3 °C 1038.5 in /  35163.6 hPa NE 1.6 mph /  2.6 km/h 8.0 mph /  12.9 km/h 89 % 0.0 in /  0 mm
10:18 -3.0 °F /  -19.4 °C -4.7 °F /  -20.4 °C 1038.8 in /  35173.8 hPa NNE 4.8 mph /  7.7 km/h 11.3 mph /  18.2 km/h 88 % 0.0 in /  0 mm
10:27 -3.0 °F /  -19.4 °C -4.7 °F /  -20.4 °C 1038.8 in /  35173.8 hPa NE 3.2 mph /  5.1 km/h 11.3 mph /  18.2 km/h 88 % 0.0 in /  0 mm
10:32 -2.9 °F /  -19.4 °C -4.6 °F /  -20.3 °C 1038.8 in /  35173.8 hPa NNW 4.8 mph /  7.7 km/h 11.3 mph /  18.2 km/h 88 % 0.0 in /  0 mm
10:37 -2.8 °F /  -19.3 °C -4.5 °F /  -20.3 °C 1038.8 in /  35173.8 hPa North 1.6 mph /  2.6 km/h 12.9 mph /  20.8 km/h 88 % 0.0 in /  0 mm
10:42 -2.8 °F /  -19.3 °C -4.5 °F /  -20.3 °C 1038.8 in /  35173.8 hPa NE 3.2 mph /  5.1 km/h 12.9 mph /  20.8 km/h 88 % 0.0 in /  0 mm
10:47 -2.7 °F /  -19.3 °C -4.4 °F /  -20.2 °C 1038.8 in /  35173.8 hPa NE 6.4 mph /  10.3 km/h 12.9 mph /  20.8 km/h 88 % 0.0 in /  0 mm
10:57 -2.4 °F /  -19.1 °C -4.1 °F /  -20.1 °C 1038.8 in /  35173.8 hPa East 3.2 mph /  5.1 km/h 9.7 mph /  15.6 km/h 88 % 0.0 in /  0 mm
11:02 -2.4 °F /  -19.1 °C -4.1 °F /  -20.1 °C 1038.8 in /  35173.8 hPa NE 4.8 mph /  7.7 km/h 9.7 mph /  15.6 km/h 88 % 0.0 in /  0 mm
11:07 -2.3 °F /  -19.1 °C -4.0 °F /  -20 °C 1038.8 in /  35173.8 hPa ENE 1.6 mph /  2.6 km/h 8.0 mph /  12.9 km/h 88 % 0.0 in /  0 mm
11:17 -2.3 °F /  -19.1 °C -4.2 °F /  -20.1 °C 1038.8 in /  35173.8 hPa NE 8.0 mph /  12.9 km/h 9.7 mph /  15.6 km/h 87 % 0.0 in /  0 mm
11:22 -2.2 °F /  -19 °C -4.1 °F /  -20.1 °C 1038.5 in /  35163.6 hPa North 4.8 mph /  7.7 km/h 9.7 mph /  15.6 km/h 87 % 0.0 in /  0 mm
11:27 -2.2 °F /  -19 °C -4.1 °F /  -20.1 °C 1038.8 in /  35173.8 hPa North 3.2 mph /  5.1 km/h 9.7 mph /  15.6 km/h 87 % 0.0 in /  0 mm
11:32 -2.1 °F /  -18.9 °C -4.1 °F /  -20.1 °C 1038.8 in /  35173.8 hPa NNE 9.7 mph /  15.6 km/h 11.3 mph /  18.2 km/h 86 % 0.0 in /  0 mm
11:37 -2.1 °F /  -18.9 °C -4.0 °F /  -20 °C 1038.8 in /  35173.8 hPa NW 1.6 mph /  2.6 km/h 14.5 mph /  23.3 km/h 87 % 0.0 in /  0 mm
11:42 -1.9 °F /  -18.8 °C -3.6 °F /  -19.8 °C 1038.8 in /  35173.8 hPa NE 4.8 mph /  7.7 km/h 14.5 mph /  23.3 km/h 88 % 0.0 in /  0 mm
11:47 -1.7 °F /  -18.7 °C -3.4 °F /  -19.7 °C 1038.8 in /  35173.8 hPa NNE 4.8 mph /  7.7 km/h 12.9 mph /  20.8 km/h 88 % 0.0 in /  0 mm
11:52 -1.7 °F /  -18.7 °C -3.6 °F /  -19.8 °C 1038.8 in /  35173.8 hPa North 1.6 mph /  2.6 km/h 11.3 mph /  18.2 km/h 87 % 0.0 in /  0 mm
11:57 -1.5 °F /  -18.6 °C -3.4 °F /  -19.7 °C 1038.8 in /  35173.8 hPa North 8.0 mph /  12.9 km/h 11.3 mph /  18.2 km/h 87 % 0.0 in /  0 mm
12:02 -1.5 °F /  -18.6 °C -3.7 °F /  -19.8 °C 1038.8 in /  35173.8 hPa NE 3.2 mph /  5.1 km/h 12.9 mph /  20.8 km/h 85 % 0.0 in /  0 mm
12:07 -1.3 °F /  -18.5 °C -3.3 °F /  -19.6 °C 1038.5 in /  35163.6 hPa NE 6.4 mph /  10.3 km/h 12.9 mph /  20.8 km/h 86 % 0.0 in /  0 mm
12:12 -1.3 °F /  -18.5 °C -3.5 °F /  -19.7 °C 1038.5 in /  35163.6 hPa NE 6.4 mph /  10.3 km/h 12.9 mph /  20.8 km/h 85 % 0.0 in /  0 mm
12:17 -1.2 °F /  -18.4 °C -3.6 °F /  -19.8 °C 1038.5 in /  35163.6 hPa NE 3.2 mph /  5.1 km/h 11.3 mph /  18.2 km/h 84 % 0.0 in /  0 mm
12:22 -1.2 °F /  -18.4 °C -3.4 °F /  -19.7 °C 1038.5 in /  35163.6 hPa NE 6.4 mph /  10.3 km/h 9.7 mph /  15.6 km/h 85 % 0.0 in /  0 mm
12:27 -1.2 °F /  -18.4 °C -3.7 °F /  -19.8 °C 1038.5 in /  35163.6 hPa NE 9.7 mph /  15.6 km/h 14.5 mph /  23.3 km/h 83 % 0.0 in /  0 mm
12:32 -1.2 °F /  -18.4 °C -3.7 °F /  -19.8 °C 1038.5 in /  35163.6 hPa NE 16.1 mph /  25.9 km/h 16.1 mph /  25.9 km/h 83 % 0.0 in /  0 mm
12:42 -1.2 °F /  -18.4 °C -3.7 °F /  -19.8 °C 1038.5 in /  35163.6 hPa NNE 14.5 mph /  23.3 km/h 16.1 mph /  25.9 km/h 83 % 0.0 in /  0 mm
12:47 -1.2 °F /  -18.4 °C -3.9 °F /  -19.9 °C 1038.5 in /  35163.6 hPa NE 12.9 mph /  20.8 km/h 19.3 mph /  31.1 km/h 82 % 0.0 in /  0 mm
12:52 -1.1 °F /  -18.4 °C -3.8 °F /  -19.9 °C 1038.5 in /  35163.6 hPa NE 11.3 mph /  18.2 km/h 19.3 mph /  31.1 km/h 82 % 0.0 in /  0 mm
12:57 -1.1 °F /  -18.4 °C -3.9 °F /  -19.9 °C 1038.5 in /  35163.6 hPa NNE 9.7 mph /  15.6 km/h 19.3 mph /  31.1 km/h 81 % 0.0 in /  0 mm
13:02 -0.9 °F /  -18.3 °C -3.7 °F /  -19.8 °C 1038.5 in /  35163.6 hPa NE 12.9 mph /  20.8 km/h 19.3 mph /  31.1 km/h 81 % 0.0 in /  0 mm
13:07 -0.8 °F /  -18.2 °C -4.0 °F /  -20 °C 1038.5 in /  35163.6 hPa NNE 11.3 mph /  18.2 km/h 16.1 mph /  25.9 km/h 79 % 0.0 in /  0 mm
13:12 -0.8 °F /  -18.2 °C -4.0 °F /  -20 °C 1038.5 in /  35163.6 hPa NE 11.3 mph /  18.2 km/h 19.3 mph /  31.1 km/h 79 % 0.0 in /  0 mm
13:17 -0.8 °F /  -18.2 °C -4.0 °F /  -20 °C 1038.1 in /  35150.1 hPa NNE 6.4 mph /  10.3 km/h 19.3 mph /  31.1 km/h 79 % 0.0 in /  0 mm
13:22 -0.7 °F /  -18.2 °C -3.9 °F /  -19.9 °C 1038.1 in /  35150.1 hPa NNE 12.9 mph /  20.8 km/h 19.3 mph /  31.1 km/h 79 % 0.0 in /  0 mm
13:27 -0.6 °F /  -18.1 °C -3.8 °F /  -19.9 °C 1038.1 in /  35150.1 hPa NNE 6.4 mph /  10.3 km/h 16.1 mph /  25.9 km/h 79 % 0.0 in /  0 mm
13:32 -0.7 °F /  -18.2 °C -3.9 °F /  -19.9 °C 1038.1 in /  35150.1 hPa NE 12.9 mph /  20.8 km/h 16.1 mph /  25.9 km/h 79 % 0.0 in /  0 mm
13:37 -0.6 °F /  -18.1 °C -3.8 °F /  -19.9 °C 1038.1 in /  35150.1 hPa ENE 3.2 mph /  5.1 km/h 16.1 mph /  25.9 km/h 79 % 0.0 in /  0 mm
13:42 -0.5 °F /  -18.1 °C -3.7 °F /  -19.8 °C 1038.1 in /  35150.1 hPa ENE 3.2 mph /  5.1 km/h 16.1 mph /  25.9 km/h 79 % 0.0 in /  0 mm
13:47 -0.4 °F /  -18 °C -3.4 °F /  -19.7 °C 1038.1 in /  35150.1 hPa NE 4.8 mph /  7.7 km/h 16.1 mph /  25.9 km/h 80 % 0.0 in /  0 mm
13:52 -0.4 °F /  -18 °C -3.4 °F /  -19.7 °C 1037.8 in /  35139.9 hPa NE 4.8 mph /  7.7 km/h 16.1 mph /  25.9 km/h 80 % 0.0 in /  0 mm
13:57 -0.4 °F /  -18 °C -3.4 °F /  -19.7 °C 1037.8 in /  35139.9 hPa Calm   16.1 mph /  25.9 km/h 80 % 0.0 in /  0 mm
14:02 -0.3 °F /  -17.9 °C -4.7 °F /  -20.4 °C 1037.8 in /  35139.9 hPa NE 12.9 mph /  20.8 km/h 16.1 mph /  25.9 km/h 72 % 0.0 in /  0 mm
14:07 -0.4 °F /  -18 °C -4.8 °F /  -20.4 °C 1037.5 in /  35129.8 hPa NNE 12.9 mph /  20.8 km/h 16.1 mph /  25.9 km/h 72 % 0.0 in /  0 mm
14:12 -0.4 °F /  -18 °C -5.4 °F /  -20.8 °C 1037.5 in /  35129.8 hPa East 11.3 mph /  18.2 km/h 19.3 mph /  31.1 km/h 69 % 0.0 in /  0 mm
14:17 -0.2 °F /  -17.9 °C -4.8 °F /  -20.4 °C 1037.8 in /  35139.9 hPa ENE 3.2 mph /  5.1 km/h 19.3 mph /  31.1 km/h 71 % 0.0 in /  0 mm
14:22 -0.2 °F /  -17.9 °C -4.8 °F /  -20.4 °C 1037.8 in /  35139.9 hPa ENE 9.7 mph /  15.6 km/h 19.3 mph /  31.1 km/h 71 % 0.0 in /  0 mm
14:32 -0.1 °F /  -17.8 °C -4.5 °F /  -20.3 °C 1037.5 in /  35129.8 hPa NE 4.8 mph /  7.7 km/h 19.3 mph /  31.1 km/h 72 % 0.0 in /  0 mm
14:37 -0.1 °F /  -17.8 °C -4.9 °F /  -20.5 °C 1037.5 in /  35129.8 hPa NE 8.0 mph /  12.9 km/h 14.5 mph /  23.3 km/h 70 % 0.0 in /  0 mm
14:42 -0.1 °F /  -17.8 °C -4.5 °F /  -20.3 °C 1037.5 in /  35129.8 hPa NNE 6.4 mph /  10.3 km/h 16.1 mph /  25.9 km/h 72 % 0.0 in /  0 mm
14:47 0.0 °F /  -17.8 °C -4.4 °F /  -20.2 °C 1037.5 in /  35129.8 hPa Calm   16.1 mph /  25.9 km/h 72 % 0.0 in /  0 mm
14:52 0.0 °F /  -17.8 °C -4.4 °F /  -20.2 °C 1037.5 in /  35129.8 hPa NE 6.4 mph /  10.3 km/h 12.9 mph /  20.8 km/h 72 % 0.0 in /  0 mm
14:57 0.0 °F /  -17.8 °C -4.6 °F /  -20.3 °C 1037.5 in /  35129.8 hPa NE 3.2 mph /  5.1 km/h 11.3 mph /  18.2 km/h 71 % 0.0 in /  0 mm
15:02 0.1 °F /  -17.7 °C -4.9 °F /  -20.5 °C 1037.1 in /  35116.2 hPa ENE 6.4 mph /  10.3 km/h 14.5 mph /  23.3 km/h 69 % 0.0 in /  0 mm
15:07 0.1 °F /  -17.7 °C -4.7 °F /  -20.4 °C 1037.1 in /  35116.2 hPa NE 3.2 mph /  5.1 km/h 14.5 mph /  23.3 km/h 70 % 0.0 in /  0 mm
15:12 0.1 °F /  -17.7 °C -4.9 °F /  -20.5 °C 1037.1 in /  35116.2 hPa NE 6.4 mph /  10.3 km/h 12.9 mph /  20.8 km/h 69 % 0.0 in /  0 mm
15:17 0.2 °F /  -17.7 °C -4.4 °F /  -20.2 °C 1037.1 in /  35116.2 hPa East 1.6 mph /  2.6 km/h 12.9 mph /  20.8 km/h 71 % 0.0 in /  0 mm
15:22 0.1 °F /  -17.7 °C -5.1 °F /  -20.6 °C 1037.1 in /  35116.2 hPa NNE 11.3 mph /  18.2 km/h 12.9 mph /  20.8 km/h 68 % 0.0 in /  0 mm
15:27 0.1 °F /  -17.7 °C -4.9 °F /  -20.5 °C 1037.1 in /  35116.2 hPa NNE 11.3 mph /  18.2 km/h 14.5 mph /  23.3 km/h 69 % 0.0 in /  0 mm
15:32 0.1 °F /  -17.7 °C -4.9 °F /  -20.5 °C 1037.5 in /  35129.8 hPa NE 6.4 mph /  10.3 km/h 14.5 mph /  23.3 km/h 69 % 0.0 in /  0 mm
15:42 0.1 °F /  -17.7 °C -5.1 °F /  -20.6 °C 1037.1 in /  35116.2 hPa NNE 8.0 mph /  12.9 km/h 14.5 mph /  23.3 km/h 68 % 0.0 in /  0 mm
15:47 0.1 °F /  -17.7 °C -5.1 °F /  -20.6 °C 1037.1 in /  35116.2 hPa NE 8.0 mph /  12.9 km/h 14.5 mph /  23.3 km/h 68 % 0.0 in /  0 mm
15:52 0.1 °F /  -17.7 °C -5.1 °F /  -20.6 °C 1037.1 in /  35116.2 hPa NE 4.8 mph /  7.7 km/h 12.9 mph /  20.8 km/h 68 % 0.0 in /  0 mm
15:57 0.1 °F /  -17.7 °C -4.9 °F /  -20.5 °C 1037.1 in /  35116.2 hPa ENE 6.4 mph /  10.3 km/h 14.5 mph /  23.3 km/h 69 % 0.0 in /  0 mm
16:02 0.1 °F /  -17.7 °C -5.3 °F /  -20.7 °C 1037.1 in /  35116.2 hPa NE 9.7 mph /  15.6 km/h 14.5 mph /  23.3 km/h 67 % 0.0 in /  0 mm
16:07 0.1 °F /  -17.7 °C -5.5 °F /  -20.8 °C 1037.1 in /  35116.2 hPa North 4.8 mph /  7.7 km/h 14.5 mph /  23.3 km/h 66 % 0.0 in /  0 mm
16:12 0.1 °F /  -17.7 °C -5.1 °F /  -20.6 °C 1037.5 in /  35129.8 hPa NNE 4.8 mph /  7.7 km/h 14.5 mph /  23.3 km/h 68 % 0.0 in /  0 mm
16:17 0.1 °F /  -17.7 °C -5.3 °F /  -20.7 °C 1037.5 in /  35129.8 hPa NNW 4.8 mph /  7.7 km/h 14.5 mph /  23.3 km/h 67 % 0.0 in /  0 mm
16:22 0.0 °F /  -17.8 °C -6.0 °F /  -21.1 °C 1037.5 in /  35129.8 hPa NNE 8.0 mph /  12.9 km/h 14.5 mph /  23.3 km/h 64 % 0.0 in /  0 mm
16:27 0.0 °F /  -17.8 °C -6.2 °F /  -21.2 °C 1037.5 in /  35129.8 hPa NNE 4.8 mph /  7.7 km/h 16.1 mph /  25.9 km/h 63 % 0.0 in /  0 mm
16:32 0.0 °F /  -17.8 °C -5.8 °F /  -21 °C 1037.5 in /  35129.8 hPa NE 6.4 mph /  10.3 km/h 16.1 mph /  25.9 km/h 65 % 0.0 in /  0 mm
16:37 0.0 °F /  -17.8 °C -4.8 °F /  -20.4 °C 1037.5 in /  35129.8 hPa NNE 4.8 mph /  7.7 km/h 16.1 mph /  25.9 km/h 70 % 0.0 in /  0 mm
16:42 -0.1 °F /  -17.8 °C -4.5 °F /  -20.3 °C 1037.5 in /  35129.8 hPa NE 6.4 mph /  10.3 km/h 14.5 mph /  23.3 km/h 72 % 0.0 in /  0 mm
16:47 -0.2 °F /  -17.9 °C -4.8 °F /  -20.4 °C 1037.5 in /  35129.8 hPa NNE 3.2 mph /  5.1 km/h 11.3 mph /  18.2 km/h 71 % 0.0 in /  0 mm
16:52 -0.3 °F /  -17.9 °C -4.9 °F /  -20.5 °C 1037.5 in /  35129.8 hPa NNE 9.7 mph /  15.6 km/h 12.9 mph /  20.8 km/h 71 % 0.0 in /  0 mm
16:57 -0.4 °F /  -18 °C -5.0 °F /  -20.6 °C 1037.5 in /  35129.8 hPa NE 3.2 mph /  5.1 km/h 14.5 mph /  23.3 km/h 71 % 0.0 in /  0 mm
17:07 -0.7 °F /  -18.2 °C -5.1 °F /  -20.6 °C 1037.5 in /  35129.8 hPa NNW 1.6 mph /  2.6 km/h 14.5 mph /  23.3 km/h 72 % 0.0 in /  0 mm
17:12 -0.8 °F /  -18.2 °C -5.4 °F /  -20.8 °C 1037.5 in /  35129.8 hPa NNE 6.4 mph /  10.3 km/h 14.5 mph /  23.3 km/h 71 % 0.0 in /  0 mm
17:17 -0.9 °F /  -18.3 °C -5.3 °F /  -20.7 °C 1037.5 in /  35129.8 hPa NNE 3.2 mph /  5.1 km/h 12.9 mph /  20.8 km/h 72 % 0.0 in /  0 mm
17:22 -1.0 °F /  -18.3 °C -5.6 °F /  -20.9 °C 1037.5 in /  35129.8 hPa NNE 3.2 mph /  5.1 km/h 12.9 mph /  20.8 km/h 71 % 0.0 in /  0 mm
17:27 -1.1 °F /  -18.4 °C -5.3 °F /  -20.7 °C 1037.5 in /  35129.8 hPa ENE 8.0 mph /  12.9 km/h 14.5 mph /  23.3 km/h 73 % 0.0 in /  0 mm
17:37 -1.3 °F /  -18.5 °C -5.5 °F /  -20.8 °C 1037.5 in /  35129.8 hPa NNE 6.4 mph /  10.3 km/h 16.1 mph /  25.9 km/h 73 % 0.0 in /  0 mm
17:42 -1.3 °F /  -18.5 °C -5.5 °F /  -20.8 °C 1037.5 in /  35129.8 hPa North 8.0 mph /  12.9 km/h 16.1 mph /  25.9 km/h 73 % 0.0 in /  0 mm
17:47 -1.4 °F /  -18.6 °C -5.6 °F /  -20.9 °C 1037.5 in /  35129.8 hPa NNE 12.9 mph /  20.8 km/h 14.5 mph /  23.3 km/h 73 % 0.0 in /  0 mm
17:57 -1.6 °F /  -18.7 °C -5.4 °F /  -20.8 °C 1037.5 in /  35129.8 hPa North 4.8 mph /  7.7 km/h 12.9 mph /  20.8 km/h 75 % 0.0 in /  0 mm
18:02 -1.6 °F /  -18.7 °C -5.6 °F /  -20.9 °C 1037.1 in /  35116.2 hPa NE 4.8 mph /  7.7 km/h 12.9 mph /  20.8 km/h 74 % 0.0 in /  0 mm
18:12 -1.7 °F /  -18.7 °C -5.7 °F /  -20.9 °C 1037.1 in /  35116.2 hPa NE 9.7 mph /  15.6 km/h 16.1 mph /  25.9 km/h 74 % 0.0 in /  0 mm
18:22 -1.9 °F /  -18.8 °C -5.6 °F /  -20.9 °C 1037.1 in /  35116.2 hPa NE 9.7 mph /  15.6 km/h 14.5 mph /  23.3 km/h 76 % 0.0 in /  0 mm
18:32 -1.9 °F /  -18.8 °C -5.6 °F /  -20.9 °C 1037.1 in /  35116.2 hPa NE 8.0 mph /  12.9 km/h 12.9 mph /  20.8 km/h 76 % 0.0 in /  0 mm
18:42 -2.1 °F /  -18.9 °C -5.8 °F /  -21 °C 1037.1 in /  35116.2 hPa NE 12.9 mph /  20.8 km/h 12.9 mph /  20.8 km/h 76 % 0.0 in /  0 mm
18:47 -2.1 °F /  -18.9 °C -5.6 °F /  -20.9 °C 1037.1 in /  35116.2 hPa NNE 9.7 mph /  15.6 km/h 14.5 mph /  23.3 km/h 77 % 0.0 in /  0 mm
18:52 -2.1 °F /  -18.9 °C -5.6 °F /  -20.9 °C 1037.5 in /  35129.8 hPa NNE 9.7 mph /  15.6 km/h 14.5 mph /  23.3 km/h 77 % 0.0 in /  0 mm
19:02 -2.2 °F /  -19 °C -5.7 °F /  -20.9 °C 1037.5 in /  35129.8 hPa North 6.4 mph /  10.3 km/h 14.5 mph /  23.3 km/h 77 % 0.0 in /  0 mm
19:07 -2.2 °F /  -19 °C -5.5 °F /  -20.8 °C 1037.5 in /  35129.8 hPa NNE 11.3 mph /  18.2 km/h 14.5 mph /  23.3 km/h 78 % 0.0 in /  0 mm
19:12 -2.3 °F /  -19.1 °C -5.6 °F /  -20.9 °C 1037.5 in /  35129.8 hPa NNE 9.7 mph /  15.6 km/h 14.5 mph /  23.3 km/h 78 % 0.0 in /  0 mm
19:22 -2.3 °F /  -19.1 °C -5.6 °F /  -20.9 °C 1037.5 in /  35129.8 hPa NE 14.5 mph /  23.3 km/h 16.1 mph /  25.9 km/h 78 % 0.0 in /  0 mm
19:27 -2.3 °F /  -19.1 °C -5.6 °F /  -20.9 °C 1037.5 in /  35129.8 hPa NE 8.0 mph /  12.9 km/h 19.3 mph /  31.1 km/h 78 % 0.0 in /  0 mm
19:32 -2.4 °F /  -19.1 °C -5.7 °F /  -20.9 °C 1037.5 in /  35129.8 hPa NE 16.1 mph /  25.9 km/h 19.3 mph /  31.1 km/h 78 % 0.0 in /  0 mm
19:37 -2.4 °F /  -19.1 °C -5.5 °F /  -20.8 °C 1037.5 in /  35129.8 hPa NNE 9.7 mph /  15.6 km/h 19.3 mph /  31.1 km/h 79 % 0.0 in /  0 mm
19:47 -2.5 °F /  -19.2 °C -5.6 °F /  -20.9 °C 1037.5 in /  35129.8 hPa NE 9.7 mph /  15.6 km/h 16.1 mph /  25.9 km/h 79 % 0.0 in /  0 mm
19:57 -2.7 °F /  -19.3 °C -5.7 °F /  -20.9 °C 1037.5 in /  35129.8 hPa NE 9.7 mph /  15.6 km/h 14.5 mph /  23.3 km/h 80 % 0.0 in /  0 mm
20:02 -2.7 °F /  -19.3 °C -5.7 °F /  -20.9 °C 1037.5 in /  35129.8 hPa North 4.8 mph /  7.7 km/h 14.5 mph /  23.3 km/h 80 % 0.0 in /  0 mm
20:07 -2.9 °F /  -19.4 °C -5.7 °F /  -20.9 °C 1037.5 in /  35129.8 hPa NNE 6.4 mph /  10.3 km/h 14.5 mph /  23.3 km/h 81 % 0.0 in /  0 mm
20:17 -2.9 °F /  -19.4 °C -5.5 °F /  -20.8 °C 1037.5 in /  35129.8 hPa North 6.4 mph /  10.3 km/h 17.7 mph /  28.5 km/h 82 % 0.0 in /  0 mm
20:27 -2.8 °F /  -19.3 °C -5.4 °F /  -20.8 °C 1037.5 in /  35129.8 hPa NNE 9.7 mph /  15.6 km/h 17.7 mph /  28.5 km/h 82 % 0.0 in /  0 mm
20:32 -2.8 °F /  -19.3 °C -5.6 °F /  -20.9 °C 1037.5 in /  35129.8 hPa NE 8.0 mph /  12.9 km/h 19.3 mph /  31.1 km/h 81 % 0.0 in /  0 mm
20:37 -2.9 °F /  -19.4 °C -5.5 °F /  -20.8 °C 1037.5 in /  35129.8 hPa NNE 8.0 mph /  12.9 km/h 19.3 mph /  31.1 km/h 82 % 0.0 in /  0 mm
20:42 -2.9 °F /  -19.4 °C -5.5 °F /  -20.8 °C 1037.5 in /  35129.8 hPa NNE 9.7 mph /  15.6 km/h 16.1 mph /  25.9 km/h 82 % 0.0 in /  0 mm
20:47 -3.0 °F /  -19.4 °C -5.6 °F /  -20.9 °C 1037.5 in /  35129.8 hPa NE 4.8 mph /  7.7 km/h 14.5 mph /  23.3 km/h 82 % 0.0 in /  0 mm
20:57 -3.1 °F /  -19.5 °C -5.6 °F /  -20.9 °C 1037.5 in /  35129.8 hPa NE 1.6 mph /  2.6 km/h 11.3 mph /  18.2 km/h 83 % 0.0 in /  0 mm
21:02 -3.2 °F /  -19.6 °C -5.7 °F /  -20.9 °C 1037.5 in /  35129.8 hPa Calm   11.3 mph /  18.2 km/h 83 % 0.0 in /  0 mm
21:12 -3.3 °F /  -19.6 °C -5.6 °F /  -20.9 °C 1037.5 in /  35129.8 hPa Calm   6.4 mph /  10.3 km/h 84 % 0.0 in /  0 mm
21:17 -3.4 °F /  -19.7 °C -5.7 °F /  -20.9 °C 1037.5 in /  35129.8 hPa Calm   6.4 mph /  10.3 km/h 84 % 0.0 in /  0 mm
21:27 -3.7 °F /  -19.8 °C -6.0 °F /  -21.1 °C 1037.5 in /  35129.8 hPa Calm   6.4 mph /  10.3 km/h 84 % 0.0 in /  0 mm
21:32 -3.9 °F /  -19.9 °C -6.0 °F /  -21.1 °C 1037.5 in /  35129.8 hPa WNW 1.6 mph /  2.6 km/h 3.2 mph /  5.1 km/h 85 % 0.0 in /  0 mm
21:37 -4.1 °F /  -20.1 °C -6.2 °F /  -21.2 °C 1037.5 in /  35129.8 hPa Calm   3.2 mph /  5.1 km/h 85 % 0.0 in /  0 mm
21:42 -4.2 °F /  -20.1 °C -6.2 °F /  -21.2 °C 1037.5 in /  35129.8 hPa WNW 1.6 mph /  2.6 km/h 1.6 mph /  2.6 km/h 86 % 0.0 in /  0 mm
21:47 -4.2 °F /  -20.1 °C -6.2 °F /  -21.2 °C 1037.5 in /  35129.8 hPa Calm   3.2 mph /  5.1 km/h 86 % 0.0 in /  0 mm
21:57 -4.2 °F /  -20.1 °C -6.2 °F /  -21.2 °C 1037.5 in /  35129.8 hPa Calm   3.2 mph /  5.1 km/h 86 % 0.0 in /  0 mm
22:02 -4.1 °F /  -20.1 °C -6.1 °F /  -21.2 °C 1037.5 in /  35129.8 hPa Calm   3.2 mph /  5.1 km/h 86 % 0.0 in /  0 mm
22:07 -4.1 °F /  -20.1 °C -6.1 °F /  -21.2 °C 1037.5 in /  35129.8 hPa NW 1.6 mph /  2.6 km/h 3.2 mph /  5.1 km/h 86 % 0.0 in /  0 mm
22:12 -4.1 °F /  -20.1 °C -6.1 °F /  -21.2 °C 1037.5 in /  35129.8 hPa Calm   3.2 mph /  5.1 km/h 86 % 0.0 in /  0 mm
22:17 -4.1 °F /  -20.1 °C -6.2 °F /  -21.2 °C 1037.5 in /  35129.8 hPa Calm   3.2 mph /  5.1 km/h 85 % 0.0 in /  0 mm
22:22 -4.1 °F /  -20.1 °C -6.1 °F /  -21.2 °C 1037.5 in /  35129.8 hPa Calm   3.2 mph /  5.1 km/h 86 % 0.0 in /  0 mm
22:27 -4.2 °F /  -20.1 °C -6.2 °F /  -21.2 °C 1037.5 in /  35129.8 hPa Calm   3.2 mph /  5.1 km/h 86 % 0.0 in /  0 mm
22:37 -4.2 °F /  -20.1 °C -6.2 °F /  -21.2 °C 1037.5 in /  35129.8 hPa Calm     86 % 0.0 in /  0 mm
22:42 -4.2 °F /  -20.1 °C -6.2 °F /  -21.2 °C 1037.5 in /  35129.8 hPa NNW 1.6 mph /  2.6 km/h 4.8 mph /  7.7 km/h 86 % 0.0 in /  0 mm
22:52 -4.3 °F /  -20.2 °C -6.3 °F /  -21.3 °C 1037.5 in /  35129.8 hPa North 3.2 mph /  5.1 km/h 6.4 mph /  10.3 km/h 86 % 0.0 in /  0 mm
22:57 -4.3 °F /  -20.2 °C -6.3 °F /  -21.3 °C 1037.5 in /  35129.8 hPa NNW 1.6 mph /  2.6 km/h 6.4 mph /  10.3 km/h 86 % 0.0 in /  0 mm
23:02 -4.3 °F /  -20.2 °C -6.3 °F /  -21.3 °C 1037.5 in /  35129.8 hPa NNW 1.6 mph /  2.6 km/h 6.4 mph /  10.3 km/h 86 % 0.0 in /  0 mm
Meteo18
Compliments of Weather Underground - 4 mb

Script developed by  Jim McMurry - jmcmurry@mwt.net Adapted for the template by  Wim van der Kuil - Leuven-Template.eu

You find our weather info also at:

European Weather Network

Weather Underground

Equipment we use:

Weather-station
Davis Vue

Weather-program
Meteobridge

Weather-server
Raspberry PI 2 B+

Provider
1 and 1

Davis Vue

Meteobridge

Raspberry PI 2 B+

1 and 1